createdAt,value
2016-12-07T00:00:36.239Z,4.5
2016-12-07T00:01:36.220Z,4.5
2016-12-07T00:02:36.508Z,4.47
2016-12-07T00:03:36.195Z,4.51
2016-12-07T00:04:36.182Z,4.5
2016-12-07T00:05:36.178Z,4.48
2016-12-07T00:06:36.159Z,4.48
2016-12-07T00:07:36.144Z,4.45
2016-12-07T00:08:36.134Z,4.51
2016-12-07T00:09:36.117Z,4.51
2016-12-07T00:10:36.718Z,4.51
2016-12-07T00:11:36.096Z,4.52
2016-12-07T00:12:36.078Z,4.52
2016-12-07T00:13:36.072Z,4.54
2016-12-07T00:14:36.063Z,4.47
2016-12-07T00:15:36.043Z,4.51
2016-12-07T00:16:36.033Z,4.54
2016-12-07T00:17:36.021Z,4.45
2016-12-07T00:18:36.011Z,4.52
2016-12-07T00:19:35.999Z,4.54
2016-12-07T00:20:35.981Z,4.51
2016-12-07T00:21:35.969Z,4.55
2016-12-07T00:22:35.960Z,4.51
2016-12-07T00:23:35.948Z,4.5
2016-12-07T00:24:35.936Z,4.52
2016-12-07T00:25:35.922Z,4.37
2016-12-07T00:26:35.907Z,4.41
2016-12-07T00:27:35.897Z,4.4
2016-12-07T00:28:35.880Z,4.34
2016-12-07T00:29:35.875Z,4.27
2016-12-07T00:30:35.862Z,4.27
2016-12-07T00:31:35.850Z,4.29
2016-12-07T00:32:35.836Z,4.24
2016-12-07T00:33:35.824Z,4.29
2016-12-07T00:34:35.812Z,4.26
2016-12-07T00:35:35.814Z,4.34
2016-12-07T00:36:35.781Z,4.37
2016-12-07T00:37:35.772Z,4.27
2016-12-07T00:38:35.756Z,4.29
2016-12-07T00:39:35.751Z,4.24
2016-12-07T00:40:35.737Z,4.26
2016-12-07T00:41:35.719Z,4.18
2016-12-07T00:42:35.716Z,4.23
2016-12-07T00:43:35.692Z,4.15
2016-12-07T00:44:35.684Z,4.22
2016-12-07T00:45:35.681Z,4.18
2016-12-07T00:46:35.657Z,4.09
2016-12-07T00:47:35.649Z,4.08
2016-12-07T00:48:35.631Z,4.2
2016-12-07T00:49:35.623Z,4.15
2016-12-07T00:50:35.611Z,4.22
2016-12-07T00:51:35.590Z,4.09
2016-12-07T00:52:35.586Z,4.09
2016-12-07T00:53:35.571Z,4.09
2016-12-07T00:54:35.570Z,4.11
2016-12-07T00:55:35.540Z,4.06
2016-12-07T00:56:35.539Z,4.09
2016-12-07T00:57:35.526Z,4.11
2016-12-07T00:58:35.504Z,4.12
2016-12-07T00:59:35.499Z,4.09
2016-12-07T01:00:35.485Z,4.12
2016-12-07T01:01:35.469Z,4.15
2016-12-07T01:02:35.455Z,4.16
2016-12-07T01:03:35.447Z,4.14
2016-12-07T01:04:35.439Z,4
2016-12-07T01:05:35.417Z,4.12
2016-12-07T01:06:35.407Z,4.18
2016-12-07T01:07:35.399Z,4.12
2016-12-07T01:08:35.682Z,4.15
2016-12-07T01:09:35.372Z,4.2
2016-12-07T01:10:35.360Z,4.15
2016-12-07T01:11:35.345Z,4.24
2016-12-07T01:12:35.331Z,4.22
2016-12-07T01:13:35.323Z,4.27
2016-12-07T01:14:35.309Z,4.2
2016-12-07T01:15:35.296Z,4.27
2016-12-07T01:16:35.285Z,4.24
2016-12-07T01:17:35.265Z,4.24
2016-12-07T01:18:35.260Z,4.26
2016-12-07T01:19:35.250Z,4.22
2016-12-07T01:20:35.235Z,4.23
2016-12-07T01:21:35.221Z,4.24
2016-12-07T01:22:35.209Z,4.12
2016-12-07T01:23:35.193Z,4.2
2016-12-07T01:24:35.187Z,4.15
2016-12-07T01:25:35.171Z,4.15
2016-12-07T01:26:35.162Z,4.14
2016-12-07T01:27:35.143Z,4.22
2016-12-07T01:28:35.133Z,4.12
2016-12-07T01:29:35.119Z,4.18
2016-12-07T01:30:35.106Z,4.09
2016-12-07T01:31:35.095Z,4.12
2016-12-07T01:32:35.080Z,4.08
2016-12-07T01:33:35.067Z,4.16
2016-12-07T01:34:35.057Z,4.18
2016-12-07T01:35:35.041Z,4.2
2016-12-07T01:36:35.035Z,4.16
2016-12-07T01:37:35.024Z,4.12
2016-12-07T01:38:35.009Z,4.09
2016-12-07T01:39:35.301Z,4.09
2016-12-07T01:40:34.980Z,4.18
2016-12-07T01:41:35.000Z,4.11
2016-12-07T01:42:34.959Z,4.09
2016-12-07T01:43:34.946Z,4.2
2016-12-07T01:44:34.929Z,4.16
2016-12-07T01:45:35.223Z,4.12
2016-12-07T01:46:34.913Z,4
2016-12-07T01:47:34.893Z,4.05
2016-12-07T01:48:34.876Z,4.05
2016-12-07T01:49:34.867Z,4.09
2016-12-07T01:50:34.855Z,4.05
2016-12-07T01:51:34.842Z,4.12
2016-12-07T01:52:34.830Z,4.14
2016-12-07T01:53:34.817Z,4.09
2016-12-07T01:54:34.802Z,4.14
2016-12-07T01:55:34.795Z,4.08
2016-12-07T01:56:34.779Z,4.08
2016-12-07T01:57:34.770Z,4.08
2016-12-07T01:58:35.059Z,4.05
2016-12-07T01:59:34.736Z,4.15
2016-12-07T02:00:34.725Z,4.09
2016-12-07T02:01:34.714Z,4.05
2016-12-07T02:02:34.696Z,4.14
2016-12-07T02:03:34.695Z,4.15
2016-12-07T02:04:34.675Z,4.18
2016-12-07T02:05:34.659Z,4.24
2016-12-07T02:06:34.647Z,4.18
2016-12-07T02:07:34.632Z,4.15
2016-12-07T02:08:34.626Z,4.12
2016-12-07T02:09:34.605Z,4.14
2016-12-07T02:10:34.629Z,4.22
2016-12-07T02:11:34.588Z,4.22
2016-12-07T02:12:34.573Z,4.14
2016-12-07T02:13:34.563Z,4.18
2016-12-07T02:14:34.547Z,4.22
2016-12-07T02:15:34.535Z,4.2
2016-12-07T02:16:34.515Z,4.18
2016-12-07T02:17:34.501Z,4.18
2016-12-07T02:18:34.504Z,4.2
2016-12-07T02:19:34.480Z,4.24
2016-12-07T02:20:34.466Z,4.24
2016-12-07T02:21:34.455Z,4.24
2016-12-07T02:22:34.444Z,4.16
2016-12-07T02:23:34.436Z,4.24
2016-12-07T02:24:34.419Z,4.26
2016-12-07T02:25:34.406Z,4.29
2016-12-07T02:26:34.397Z,4.27
2016-12-07T02:27:34.381Z,4.32
2016-12-07T02:28:34.372Z,4.34
2016-12-07T02:29:34.355Z,4.37
2016-12-07T02:30:34.346Z,4.34
2016-12-07T02:31:34.338Z,4.3
2016-12-07T02:32:34.318Z,4.37
2016-12-07T02:33:34.309Z,4.41
2016-12-07T02:34:34.293Z,4.41
2016-12-07T02:35:34.281Z,4.45
2016-12-07T02:36:34.266Z,4.42
2016-12-07T02:37:34.253Z,4.41
2016-12-07T02:38:34.245Z,4.37
2016-12-07T02:39:34.228Z,4.37
2016-12-07T02:40:34.223Z,4.33
2016-12-07T02:41:34.202Z,4.26
2016-12-07T02:42:34.194Z,4.27
2016-12-07T02:43:34.534Z,4.26
2016-12-07T02:44:34.165Z,4.22
2016-12-07T02:45:34.157Z,4.18
2016-12-07T02:46:34.142Z,4.15
2016-12-07T02:47:34.128Z,4.18
2016-12-07T02:48:34.118Z,4.12
2016-12-07T02:49:34.107Z,4.22
2016-12-07T02:50:34.096Z,4.11
2016-12-07T02:51:34.078Z,4.12
2016-12-07T02:52:34.066Z,4.09
2016-12-07T02:53:34.056Z,4.09
2016-12-07T02:54:34.044Z,4.12
2016-12-07T02:55:34.028Z,4.15
2016-12-07T02:56:34.018Z,4.12
2016-12-07T02:57:34.005Z,4.11
2016-12-07T02:58:33.990Z,4.09
2016-12-07T02:59:33.980Z,4.09
2016-12-07T03:00:33.961Z,4.09
2016-12-07T03:01:33.953Z,4
2016-12-07T03:02:33.940Z,4.04
2016-12-07T03:03:33.927Z,4.06
2016-12-07T03:04:33.917Z,3.98
2016-12-07T03:05:33.907Z,4.08
2016-12-07T03:06:33.889Z,4.05
2016-12-07T03:07:33.877Z,4.12
2016-12-07T03:08:33.859Z,4.02
2016-12-07T03:09:33.880Z,4.04
2016-12-07T03:10:33.841Z,4.02
2016-12-07T03:11:33.826Z,4.05
2016-12-07T03:12:33.810Z,4.11
2016-12-07T03:13:33.802Z,4.09
2016-12-07T03:14:33.788Z,4.05
2016-12-07T03:15:33.774Z,4.02
2016-12-07T03:16:33.771Z,4.06
2016-12-07T03:17:33.746Z,3.93
2016-12-07T03:18:33.738Z,4
2016-12-07T03:19:33.725Z,3.93
2016-12-07T03:20:33.712Z,4.09
2016-12-07T03:21:33.697Z,3.98
2016-12-07T03:22:33.689Z,4.04
2016-12-07T03:23:33.673Z,4.05
2016-12-07T03:24:33.663Z,4
2016-12-07T03:25:33.647Z,4.05
2016-12-07T03:26:33.635Z,3.96
2016-12-07T03:27:33.620Z,3.88
2016-12-07T03:28:33.909Z,3.88
2016-12-07T03:29:33.599Z,3.9
2016-12-07T03:30:33.581Z,3.93
2016-12-07T03:31:33.568Z,3.96
2016-12-07T03:32:33.561Z,3.97
2016-12-07T03:33:33.545Z,3.94
2016-12-07T03:34:33.545Z,3.93
2016-12-07T03:35:33.519Z,3.97
2016-12-07T03:36:33.505Z,3.93
2016-12-07T03:37:33.499Z,3.94
2016-12-07T03:39:11.857Z,3.91
2016-12-07T03:39:33.475Z,3.98
2016-12-07T03:40:33.457Z,3.88
2016-12-07T03:41:33.449Z,3.93
2016-12-07T03:42:33.434Z,3.91
2016-12-07T03:43:33.414Z,4.05
2016-12-07T03:44:33.404Z,4
2016-12-07T03:45:33.396Z,3.98
2016-12-07T03:46:33.681Z,4.06
2016-12-07T03:47:33.368Z,4
2016-12-07T03:48:33.358Z,4.02
2016-12-07T03:49:33.347Z,4.05
2016-12-07T03:50:33.331Z,4.05
2016-12-07T03:51:33.322Z,4.08
2016-12-07T03:52:33.307Z,4.06
2016-12-07T03:53:33.590Z,4.06
2016-12-07T03:54:33.280Z,4.09
2016-12-07T03:55:33.269Z,4.18
2016-12-07T03:56:33.251Z,4.08
2016-12-07T03:57:33.238Z,4.06
2016-12-07T03:58:33.228Z,4.11
2016-12-07T03:59:33.209Z,4.06
2016-12-07T04:00:33.199Z,4.18
2016-12-07T04:01:33.186Z,4.05
2016-12-07T04:02:33.182Z,4.06
2016-12-07T04:03:33.160Z,4.06
2016-12-07T04:04:33.148Z,4.12
2016-12-07T04:05:33.138Z,4.12
2016-12-07T04:06:33.131Z,4.12
2016-12-07T04:07:33.114Z,4.08
2016-12-07T04:08:33.106Z,4.16
2016-12-07T04:09:33.095Z,4.11
2016-12-07T04:10:33.077Z,4.12
2016-12-07T04:11:33.056Z,4.11
2016-12-07T04:12:33.059Z,4.09
2016-12-07T04:13:33.036Z,4.05
2016-12-07T04:14:33.025Z,4.05
2016-12-07T04:15:33.009Z,4.02
2016-12-07T04:16:32.998Z,3.91
2016-12-07T04:17:32.982Z,3.93
2016-12-07T04:18:32.967Z,3.93
2016-12-07T04:19:32.958Z,3.91
2016-12-07T04:20:32.950Z,3.88
2016-12-07T04:21:32.930Z,3.87
2016-12-07T04:22:32.954Z,3.75
2016-12-07T04:23:32.908Z,3.75
2016-12-07T04:24:32.897Z,3.73
2016-12-07T04:25:32.882Z,3.69
2016-12-07T04:26:32.865Z,3.69
2016-12-07T04:27:32.860Z,3.66
2016-12-07T04:28:32.846Z,3.7
2016-12-07T04:29:32.827Z,3.65
2016-12-07T04:30:32.823Z,3.61
2016-12-07T04:31:32.829Z,3.57
2016-12-07T04:32:32.792Z,3.62
2016-12-07T04:33:32.780Z,3.55
2016-12-07T04:34:32.766Z,3.55
2016-12-07T04:35:32.756Z,3.52
2016-12-07T04:36:32.738Z,3.6
2016-12-07T04:37:32.727Z,3.55
2016-12-07T04:38:32.710Z,3.51
2016-12-07T04:39:32.698Z,3.47
2016-12-07T04:40:32.688Z,3.45
2016-12-07T04:41:32.677Z,3.48
2016-12-07T04:42:32.660Z,3.48
2016-12-07T04:43:32.643Z,3.47
2016-12-07T04:44:32.635Z,3.48
2016-12-07T04:45:32.622Z,3.48
2016-12-07T04:46:32.607Z,3.39
2016-12-07T04:47:32.596Z,3.39
2016-12-07T04:48:32.580Z,3.43
2016-12-07T04:49:32.568Z,3.39
2016-12-07T04:50:32.560Z,3.39
2016-12-07T04:51:32.544Z,3.36
2016-12-07T04:52:32.528Z,3.39
2016-12-07T04:53:32.519Z,3.45
2016-12-07T04:54:32.499Z,3.35
2016-12-07T04:55:32.488Z,3.5
2016-12-07T04:56:32.474Z,3.54
2016-12-07T04:57:32.464Z,3.43
2016-12-07T04:58:32.454Z,3.45
2016-12-07T04:59:32.740Z,3.58
2016-12-07T05:00:32.421Z,3.55
2016-12-07T05:01:32.410Z,3.58
2016-12-07T05:02:32.397Z,3.57
2016-12-07T05:03:32.386Z,3.52
2016-12-07T05:04:32.367Z,3.43
2016-12-07T05:05:32.357Z,3.54
2016-12-07T05:06:32.343Z,3.45
2016-12-07T05:07:32.328Z,3.45
2016-12-07T05:08:32.320Z,3.54
2016-12-07T05:09:32.311Z,3.55
2016-12-07T05:10:32.288Z,3.5
2016-12-07T05:11:32.282Z,3.58
2016-12-07T05:12:32.267Z,3.55
2016-12-07T05:13:32.254Z,3.51
2016-12-07T05:14:32.238Z,3.52
2016-12-07T05:15:32.224Z,3.43
2016-12-07T05:16:32.210Z,3.47
2016-12-07T05:17:32.196Z,3.47
2016-12-07T05:18:32.186Z,3.47
2016-12-07T05:19:32.172Z,3.48
2016-12-07T05:20:32.165Z,3.48
2016-12-07T05:21:32.143Z,3.55
2016-12-07T05:22:32.131Z,3.55
2016-12-07T05:23:32.116Z,3.52
2016-12-07T05:24:32.107Z,3.52
2016-12-07T05:25:32.088Z,3.54
2016-12-07T05:26:32.080Z,3.57
2016-12-07T05:27:32.064Z,3.61
2016-12-07T05:28:32.055Z,3.57
2016-12-07T05:29:32.037Z,3.52
2016-12-07T05:30:32.020Z,3.54
2016-12-07T05:31:32.017Z,3.54
2016-12-07T05:32:32.003Z,3.52
2016-12-07T05:33:31.984Z,3.61
2016-12-07T05:34:31.972Z,3.58
2016-12-07T05:35:31.963Z,3.61
2016-12-07T05:36:31.947Z,3.65
2016-12-07T05:37:31.933Z,3.58
2016-12-07T05:38:31.920Z,3.55
2016-12-07T05:39:31.903Z,3.58
2016-12-07T05:40:31.892Z,3.65
2016-12-07T05:41:31.880Z,3.62
2016-12-07T05:42:32.167Z,3.61
2016-12-07T05:43:31.852Z,3.52
2016-12-07T05:44:31.842Z,3.58
2016-12-07T05:45:31.826Z,3.68
2016-12-07T05:46:31.809Z,3.6
2016-12-07T05:47:31.797Z,3.61
2016-12-07T05:48:31.786Z,3.57
2016-12-07T05:49:31.780Z,3.55
2016-12-07T05:50:31.764Z,3.61
2016-12-07T05:51:31.750Z,3.57
2016-12-07T05:52:31.729Z,3.52
2016-12-07T05:53:31.727Z,3.57
2016-12-07T05:54:31.708Z,3.54
2016-12-07T05:55:31.695Z,3.52
2016-12-07T05:56:31.676Z,3.6
2016-12-07T05:57:31.668Z,3.55
2016-12-07T05:58:31.656Z,3.51
2016-12-07T05:59:31.645Z,3.54
2016-12-07T06:00:31.631Z,3.66
2016-12-07T06:01:31.617Z,3.57
2016-12-07T06:02:31.606Z,3.57
2016-12-07T06:03:31.591Z,3.69
2016-12-07T06:04:31.573Z,3.62
2016-12-07T06:05:31.566Z,3.54
2016-12-07T06:06:31.548Z,3.62
2016-12-07T06:07:31.535Z,3.57
2016-12-07T06:08:31.523Z,3.6
2016-12-07T06:09:31.509Z,3.66
2016-12-07T06:10:31.499Z,3.65
2016-12-07T06:11:31.493Z,3.66
2016-12-07T06:12:31.469Z,3.5
2016-12-07T06:13:31.454Z,3.52
2016-12-07T06:14:31.444Z,3.58
2016-12-07T06:15:31.432Z,3.52
2016-12-07T06:16:31.413Z,3.36
2016-12-07T06:17:31.401Z,3.42
2016-12-07T06:18:31.392Z,3.33
2016-12-07T06:19:31.372Z,3.28
2016-12-07T06:20:31.366Z,3.35
2016-12-07T06:21:31.349Z,3.29
2016-12-07T06:22:31.338Z,3.31
2016-12-07T06:23:31.321Z,3.23
2016-12-07T06:24:31.311Z,3.28
2016-12-07T06:25:31.295Z,3.32
2016-12-07T06:26:31.285Z,3.23
2016-12-07T06:27:31.299Z,3.1
2016-12-07T06:28:31.256Z,3.08
2016-12-07T06:29:31.243Z,3.03
2016-12-07T06:30:31.228Z,2.96
2016-12-07T06:31:31.510Z,2.81
2016-12-07T06:32:31.208Z,2.85
2016-12-07T06:33:31.187Z,2.85
2016-12-07T06:34:31.175Z,2.81
2016-12-07T06:35:31.167Z,2.74
2016-12-07T06:36:31.148Z,2.71
2016-12-07T06:37:31.135Z,2.74
2016-12-07T06:38:31.427Z,2.59
2016-12-07T06:39:31.142Z,2.61
2016-12-07T06:40:31.089Z,2.6
2016-12-07T06:41:31.078Z,2.49
2016-12-07T06:42:31.372Z,2.59
2016-12-07T06:43:31.050Z,2.52
2016-12-07T06:44:31.042Z,2.41
2016-12-07T06:45:31.026Z,2.48
2016-12-07T06:46:31.007Z,2.49
2016-12-07T06:47:30.995Z,2.41
2016-12-07T06:48:30.984Z,2.35
2016-12-07T06:49:30.963Z,2.42
2016-12-07T06:50:30.962Z,2.36
2016-12-07T06:51:30.939Z,2.41
2016-12-07T06:52:30.925Z,2.36
2016-12-07T06:53:30.914Z,2.41
2016-12-07T06:54:31.199Z,2.35
2016-12-07T06:55:30.885Z,2.35
2016-12-07T06:56:30.875Z,2.3
2016-12-07T06:57:30.860Z,2.36
2016-12-07T06:58:30.864Z,2.35
2016-12-07T06:59:30.830Z,2.36
2016-12-07T07:00:30.813Z,2.35
2016-12-07T07:01:30.792Z,2.36
2016-12-07T07:02:30.784Z,2.34
2016-12-07T07:03:30.771Z,2.34
2016-12-07T07:04:30.755Z,2.25
2016-12-07T07:05:30.742Z,2.35
2016-12-07T07:06:30.726Z,2.28
2016-12-07T07:07:31.016Z,2.27
2016-12-07T07:08:30.702Z,2.39
2016-12-07T07:09:30.687Z,2.41
2016-12-07T07:10:31.280Z,2.38
2016-12-07T07:11:30.656Z,2.43
2016-12-07T07:12:30.643Z,2.35
2016-12-07T07:13:30.627Z,2.38
2016-12-07T07:14:30.614Z,2.43
2016-12-07T07:15:30.918Z,2.39
2016-12-07T07:16:30.588Z,2.48
2016-12-07T07:17:30.573Z,2.41
2016-12-07T07:18:30.556Z,2.56
2016-12-07T07:19:30.850Z,2.52
2016-12-07T07:20:30.527Z,2.6
2016-12-07T07:21:30.515Z,2.53
2016-12-07T07:22:30.501Z,2.59
2016-12-07T07:23:30.492Z,2.53
2016-12-07T07:24:30.478Z,2.46
2016-12-07T07:25:30.463Z,2.46
2016-12-07T07:26:30.451Z,2.52
2016-12-07T07:27:30.428Z,2.49
2016-12-07T07:28:30.422Z,2.45
2016-12-07T07:29:30.408Z,2.52
2016-12-07T07:30:30.688Z,2.42
2016-12-07T07:31:30.370Z,2.52
2016-12-07T07:32:30.664Z,2.45
2016-12-07T07:33:30.348Z,2.56
2016-12-07T07:34:30.335Z,2.48
2016-12-07T07:35:30.322Z,2.43
2016-12-07T07:36:30.311Z,2.54
2016-12-07T07:37:30.301Z,2.52
2016-12-07T07:38:30.279Z,2.54
2016-12-07T07:39:30.270Z,2.53
2016-12-07T07:40:30.252Z,2.49
2016-12-07T07:41:30.240Z,2.49
2016-12-07T07:42:30.224Z,2.54
2016-12-07T07:43:30.210Z,2.52
2016-12-07T07:44:30.200Z,2.61
2016-12-07T07:45:30.177Z,2.49
2016-12-07T07:46:30.164Z,2.59
2016-12-07T07:47:30.158Z,2.61
2016-12-07T07:48:30.138Z,2.61
2016-12-07T07:49:30.127Z,2.59
2016-12-07T07:50:30.110Z,2.6
2016-12-07T07:51:30.101Z,2.57
2016-12-07T07:52:30.088Z,2.66
2016-12-07T07:53:30.071Z,2.66
2016-12-07T07:54:30.058Z,2.64
2016-12-07T07:55:30.046Z,2.71
2016-12-07T07:56:30.331Z,2.67
2016-12-07T07:57:30.022Z,2.79
2016-12-07T07:58:30.004Z,2.84
2016-12-07T07:59:29.989Z,2.81
2016-12-07T08:00:29.976Z,2.81
2016-12-07T08:01:29.965Z,2.85
2016-12-07T08:02:29.944Z,2.78
2016-12-07T08:03:29.939Z,2.87
2016-12-07T08:04:29.920Z,2.93
2016-12-07T08:05:29.911Z,2.93
2016-12-07T08:06:29.894Z,2.99
2016-12-07T08:07:29.882Z,3.08
2016-12-07T08:08:29.867Z,3.15
2016-12-07T08:09:29.847Z,3.17
2016-12-07T08:10:29.840Z,3.03
2016-12-07T08:11:29.826Z,3.17
2016-12-07T08:12:29.814Z,3.21
2016-12-07T08:13:29.799Z,3.28
2016-12-07T08:14:29.786Z,3.29
2016-12-07T08:15:29.780Z,3.24
2016-12-07T08:16:29.754Z,3.24
2016-12-07T08:17:29.746Z,3.26
2016-12-07T08:18:29.734Z,3.31
2016-12-07T08:19:29.720Z,3.33
2016-12-07T08:20:29.707Z,3.33
2016-12-07T08:21:29.686Z,3.4
2016-12-07T08:22:29.681Z,3.35
2016-12-07T08:23:29.694Z,3.51
2016-12-07T08:24:29.655Z,3.47
2016-12-07T08:25:29.634Z,3.61
2016-12-07T08:26:29.635Z,3.54
2016-12-07T08:27:29.610Z,3.65
2016-12-07T08:28:29.596Z,3.6
2016-12-07T08:29:29.583Z,3.69
2016-12-07T08:30:29.571Z,3.68
2016-12-07T08:31:29.561Z,3.72
2016-12-07T08:32:29.549Z,3.75
2016-12-07T08:33:29.538Z,3.79
2016-12-07T08:34:29.526Z,3.83
2016-12-07T08:35:29.513Z,3.84
2016-12-07T08:36:29.491Z,3.87
2016-12-07T08:37:29.481Z,3.96
2016-12-07T08:38:29.469Z,3.91
2016-12-07T08:39:29.455Z,3.98
2016-12-07T08:40:29.443Z,4.02
2016-12-07T08:41:29.428Z,3.98
2016-12-07T08:42:29.415Z,4.05
2016-12-07T08:43:29.403Z,4.04
2016-12-07T08:44:29.394Z,4
2016-12-07T08:45:29.378Z,4.02
2016-12-07T08:46:29.366Z,4.04
2016-12-07T08:47:29.350Z,4
2016-12-07T08:48:29.643Z,3.98
2016-12-07T08:49:29.329Z,4.14
2016-12-07T08:50:29.327Z,4.11
2016-12-07T08:51:29.300Z,4.06
2016-12-07T08:52:29.295Z,4.15
2016-12-07T08:53:29.278Z,4.11
2016-12-07T08:54:29.296Z,4.12
2016-12-07T08:55:29.251Z,4.11
2016-12-07T08:56:29.244Z,4.14
2016-12-07T08:57:29.231Z,4.14
2016-12-07T08:58:29.217Z,4.06
2016-12-07T08:59:29.206Z,4.02
2016-12-07T09:00:29.488Z,4.04
2016-12-07T09:01:29.178Z,3.98
2016-12-07T09:02:29.166Z,3.94
2016-12-07T09:03:29.152Z,3.97
2016-12-07T09:04:29.137Z,3.96
2016-12-07T09:05:29.131Z,4.02
2016-12-07T09:06:29.115Z,4.04
2016-12-07T09:07:29.107Z,4
2016-12-07T09:08:29.086Z,4.02
2016-12-07T09:09:29.079Z,4
2016-12-07T09:10:29.271Z,4.06
2016-12-07T09:11:29.053Z,4.11
2016-12-07T09:12:29.045Z,4.02
2016-12-07T09:13:29.027Z,4
2016-12-07T09:14:29.016Z,4.06
2016-12-07T09:15:29.014Z,3.98
2016-12-07T09:16:28.997Z,4.15
2016-12-07T09:17:28.979Z,4.04
2016-12-07T09:18:28.968Z,4.09
2016-12-07T09:19:28.947Z,4.12
2016-12-07T09:20:28.964Z,4.06
2016-12-07T09:21:29.241Z,4.09
2016-12-07T09:22:28.912Z,4.05
2016-12-07T09:23:28.913Z,4.14
2016-12-07T09:24:28.896Z,4.24
2016-12-07T09:25:28.881Z,4.26
2016-12-07T09:26:28.865Z,4.36
2016-12-07T09:27:28.856Z,4.27
2016-12-07T09:28:28.841Z,4.3
2016-12-07T09:29:28.832Z,4.37
2016-12-07T09:30:28.817Z,4.48
2016-12-07T09:31:28.805Z,4.47
2016-12-07T09:32:28.796Z,4.54
2016-12-07T09:33:28.780Z,4.54
2016-12-07T09:34:28.794Z,4.66
2016-12-07T09:35:28.759Z,4.66
2016-12-07T09:36:28.739Z,4.63
2016-12-07T09:37:28.739Z,4.66
2016-12-07T09:38:28.714Z,4.65
2016-12-07T09:39:28.714Z,4.65
2016-12-07T09:40:28.698Z,4.69
2016-12-07T09:41:28.681Z,4.66
2016-12-07T09:42:28.676Z,4.69
2016-12-07T09:43:28.663Z,4.7
2016-12-07T09:44:28.649Z,4.7
2016-12-07T09:45:28.634Z,4.66
2016-12-07T09:46:28.630Z,4.78
2016-12-07T09:47:28.613Z,4.59
2016-12-07T09:48:28.610Z,4.6
2016-12-07T09:49:28.590Z,4.58
2016-12-07T09:50:28.615Z,4.75
2016-12-07T09:51:28.567Z,4.73
2016-12-07T09:52:28.556Z,4.62
2016-12-07T09:53:28.546Z,4.67
2016-12-07T09:54:28.531Z,4.62
2016-12-07T09:55:28.522Z,4.73
2016-12-07T09:56:28.509Z,4.7
2016-12-07T09:57:28.497Z,4.69
2016-12-07T09:58:28.490Z,4.62
2016-12-07T09:59:28.470Z,4.66
2016-12-07T10:00:28.469Z,4.55
2016-12-07T10:01:28.450Z,4.51
2016-12-07T10:02:28.441Z,4.48
2016-12-07T10:03:28.453Z,4.51
2016-12-07T10:04:28.417Z,4.51
2016-12-07T10:05:28.404Z,4.37
2016-12-07T10:06:28.697Z,4.41
2016-12-07T10:07:28.383Z,4.34
2016-12-07T10:08:28.369Z,4.36
2016-12-07T10:09:28.353Z,4.27
2016-12-07T10:10:28.647Z,4.29
2016-12-07T10:11:28.331Z,4.16
2016-12-07T10:12:28.318Z,4.14
2016-12-07T10:13:28.308Z,4.22
2016-12-07T10:14:28.294Z,4.22
2016-12-07T10:15:28.284Z,4.2
2016-12-07T10:16:28.272Z,4.09
2016-12-07T10:17:28.261Z,4.05
2016-12-07T10:18:28.243Z,4.05
2016-12-07T10:19:28.239Z,4.15
2016-12-07T10:20:28.531Z,4.09
2016-12-07T10:21:28.209Z,4.09
2016-12-07T10:22:28.199Z,4.18
2016-12-07T10:23:28.187Z,4.18
2016-12-07T10:24:28.171Z,4.27
2016-12-07T10:25:28.192Z,4.23
2016-12-07T10:26:28.152Z,4.3
2016-12-07T10:27:28.131Z,4.24
2016-12-07T10:28:28.125Z,4.32
2016-12-07T10:29:28.114Z,4.33
2016-12-07T10:30:28.104Z,4.44
2016-12-07T10:31:28.089Z,4.4
2016-12-07T10:32:28.080Z,4.4
2016-12-07T10:33:28.060Z,4.4
2016-12-07T10:34:28.051Z,4.45
2016-12-07T10:35:28.036Z,4.37
2016-12-07T10:36:28.031Z,4.45
2016-12-07T10:37:28.013Z,4.47
2016-12-07T10:38:28.006Z,4.4
2016-12-07T10:39:27.990Z,4.47
2016-12-07T10:40:28.285Z,4.52
2016-12-07T10:41:27.961Z,4.6
2016-12-07T10:42:27.953Z,4.65
2016-12-07T10:43:27.949Z,4.63
2016-12-07T10:44:27.924Z,4.7
2016-12-07T10:45:28.220Z,4.77
2016-12-07T10:46:27.900Z,4.77
2016-12-07T10:47:27.893Z,4.86
2016-12-07T10:48:27.886Z,4.94
2016-12-07T10:49:27.901Z,4.96
2016-12-07T10:50:27.855Z,4.91
2016-12-07T10:51:27.882Z,4.94
2016-12-07T10:52:27.838Z,5.03
2016-12-07T10:53:27.818Z,5.12
2016-12-07T10:54:27.813Z,4.97
2016-12-07T10:55:27.805Z,5.07
2016-12-07T10:56:27.791Z,5.13
2016-12-07T10:57:27.775Z,5.2
2016-12-07T10:58:27.764Z,5.28
2016-12-07T10:59:27.746Z,5.3
2016-12-07T11:00:27.744Z,5.2
2016-12-07T11:01:27.730Z,5.27
2016-12-07T11:02:27.721Z,5.21
2016-12-07T11:03:27.705Z,5.25
2016-12-07T11:04:27.692Z,5.22
2016-12-07T11:05:27.683Z,5.24
2016-12-07T11:06:27.673Z,5.31
2016-12-07T11:07:27.657Z,5.24
2016-12-07T11:08:27.649Z,5.2
2016-12-07T11:09:27.636Z,5.07
2016-12-07T11:10:27.627Z,5.1
2016-12-07T11:11:27.614Z,5.1
2016-12-07T11:12:27.596Z,4.99
2016-12-07T11:13:27.592Z,5.06
2016-12-07T11:14:27.579Z,5.1
2016-12-07T11:15:27.567Z,5.04
2016-12-07T11:16:27.555Z,5
2016-12-07T11:17:27.541Z,5.09
2016-12-07T11:18:27.527Z,5.04
2016-12-07T11:19:27.522Z,5.02
2016-12-07T11:20:27.506Z,4.99
2016-12-07T11:21:27.499Z,4.91
2016-12-07T11:22:27.688Z,4.94
2016-12-07T11:23:27.466Z,4.96
2016-12-07T11:24:27.456Z,4.92
2016-12-07T11:25:27.452Z,4.92
2016-12-07T11:26:27.433Z,4.96
2016-12-07T11:27:27.424Z,4.99
2016-12-07T11:28:27.413Z,4.91
2016-12-07T11:29:27.434Z,4.91
2016-12-07T11:30:27.594Z,4.92
2016-12-07T11:31:27.375Z,4.86
2016-12-07T11:32:27.368Z,4.88
2016-12-07T11:33:27.351Z,4.84
2016-12-07T11:34:27.366Z,4.92
2016-12-07T11:35:27.332Z,4.92
2016-12-07T11:36:27.326Z,4.99
2016-12-07T11:37:27.303Z,4.97
2016-12-07T11:38:27.292Z,5.07
2016-12-07T11:39:27.277Z,5.04
2016-12-07T11:40:27.267Z,5.18
2016-12-07T11:41:27.260Z,5.18
2016-12-07T11:42:27.252Z,5.22
2016-12-07T11:43:27.235Z,5.18
2016-12-07T11:44:27.222Z,5.18
2016-12-07T11:45:27.211Z,5.27
2016-12-07T11:46:27.200Z,5.24
2016-12-07T11:47:27.186Z,5.21
2016-12-07T11:48:27.171Z,5.24
2016-12-07T11:49:27.363Z,5.21
2016-12-07T11:50:27.156Z,5.42
2016-12-07T11:51:27.138Z,5.39
2016-12-07T11:52:27.331Z,5.39
2016-12-07T11:53:27.123Z,5.48
2016-12-07T11:54:27.101Z,5.56
2016-12-07T11:55:27.392Z,5.54
2016-12-07T11:56:27.076Z,5.65
2016-12-07T11:57:27.066Z,5.68
2016-12-07T11:58:27.061Z,5.71
2016-12-07T11:59:27.040Z,5.83
2016-12-07T12:00:27.040Z,5.82
2016-12-07T12:01:27.053Z,5.82
2016-12-07T12:02:27.009Z,5.89
2016-12-07T12:03:27.003Z,5.9
2016-12-07T12:04:26.981Z,5.85
2016-12-07T12:05:26.976Z,5.83
2016-12-07T12:06:26.962Z,5.78
2016-12-07T12:07:26.961Z,5.89
2016-12-07T12:08:26.944Z,5.82
2016-12-07T12:09:26.929Z,5.85
2016-12-07T12:10:26.917Z,5.83
2016-12-07T12:11:26.908Z,5.9
2016-12-07T12:12:26.895Z,5.83
2016-12-07T12:13:27.083Z,5.93
2016-12-07T12:14:26.876Z,5.89
2016-12-07T12:15:27.157Z,5.83
2016-12-07T12:16:26.852Z,5.79
2016-12-07T12:17:26.879Z,5.85
2016-12-07T12:18:27.431Z,5.85
2016-12-07T12:19:26.814Z,5.97
2016-12-07T12:20:26.809Z,5.86
2016-12-07T12:21:26.800Z,5.89
2016-12-07T12:22:26.781Z,5.78
2016-12-07T12:23:26.778Z,5.72
2016-12-07T12:24:26.761Z,5.74
2016-12-07T12:25:26.747Z,5.65
2016-12-07T12:26:26.740Z,5.58
2016-12-07T12:27:26.730Z,5.64
2016-12-07T12:28:26.716Z,5.58
2016-12-07T12:29:26.704Z,5.56
2016-12-07T12:30:26.693Z,5.64
2016-12-07T12:31:26.687Z,5.54
2016-12-07T12:32:26.671Z,5.57
2016-12-07T12:33:26.663Z,5.58
2016-12-07T12:34:26.646Z,5.61
2016-12-07T12:35:26.630Z,5.71
2016-12-07T12:36:26.626Z,5.56
2016-12-07T12:37:26.613Z,5.61
2016-12-07T12:38:26.623Z,5.64
2016-12-07T12:39:26.593Z,5.56
2016-12-07T12:40:26.577Z,5.71
2016-12-07T12:41:26.572Z,5.68
2016-12-07T12:42:26.554Z,5.6
2016-12-07T12:43:26.543Z,5.58
2016-12-07T12:44:26.538Z,5.6
2016-12-07T12:45:26.524Z,5.63
2016-12-07T12:46:26.515Z,5.61
2016-12-07T12:47:26.497Z,5.49
2016-12-07T12:48:26.485Z,5.54
2016-12-07T12:49:26.782Z,5.56
2016-12-07T12:50:26.466Z,5.57
2016-12-07T12:51:26.458Z,5.67
2016-12-07T12:52:26.446Z,5.64
2016-12-07T12:53:26.426Z,5.63
2016-12-07T12:54:26.426Z,5.6
2016-12-07T12:55:26.714Z,5.58
2016-12-07T12:56:26.399Z,5.61
2016-12-07T12:57:26.389Z,5.61
2016-12-07T12:58:26.375Z,5.57
2016-12-07T12:59:26.356Z,5.53
2016-12-07T13:00:26.352Z,5.57
2016-12-07T13:01:26.344Z,5.65
2016-12-07T13:02:26.325Z,5.76
2016-12-07T13:03:26.319Z,5.76
2016-12-07T13:04:26.317Z,5.78
2016-12-07T13:05:26.293Z,5.9
2016-12-07T13:06:26.287Z,5.78
2016-12-07T13:07:26.269Z,5.89
2016-12-07T13:08:26.257Z,5.85
2016-12-07T13:09:26.241Z,5.85
2016-12-07T13:10:26.241Z,5.96
2016-12-07T13:11:26.228Z,5.96
2016-12-07T13:12:26.214Z,5.99
2016-12-07T13:13:26.519Z,6.04
2016-12-07T13:14:26.494Z,6.06
2016-12-07T13:15:26.185Z,6.06
2016-12-07T13:16:26.171Z,6.08
2016-12-07T13:17:26.161Z,5.99
2016-12-07T13:18:26.144Z,6.08
2016-12-07T13:19:26.140Z,6.03
2016-12-07T13:20:26.126Z,5.94
2016-12-07T13:21:26.120Z,5.89